Latest Weather Observations for Clare

IDS60801

Issued at 8:05 pm CST Tuesday 29 July 2014 (issued every 30 minutes, with the page automatically refreshed every 10 minutes)

About weather observations | Map of weather stations | Latest weather observations for SA | Other Formats
Station Details ID: 021131 Name: CLARE HIGH SCHOOL Lat: -33.82 Lon: 138.59 Height: 395.0 m
Data from the previous 72 hours. | See also: Recent months at Clare
Date/Time
CST
Temp
°C
App
Temp
°C
Dew
Point
Rel
Hum
%
Delta-T
°C
Wind Press
QNH
hPa
Press
MSL
hPa
Rain
since 9 am
mm
Dir
 
Spd
km/h
Gust
km/h
Spd
kts
Gust
kts
29/08:00pm 13.0 10.0 9.3 78 1.9 W 15 24 8 13 1019.9 - 0.0
29/07:30pm 13.2 10.3 9.5 78 1.9 W 15 20 8 11 1019.5 - 0.0
29/07:00pm 13.4 10.5 9.6 78 2.0 W 15 24 8 13 1019.4 - 0.0
29/06:30pm 13.5 11.1 9.9 79 1.9 WNW 13 20 7 11 1019.2 - 0.0
29/06:00pm 13.5 11.5 10.1 80 1.8 W 11 19 6 10 1019.0 1019.6 0.0
29/05:30pm 13.6 11.3 10.6 82 1.6 W 13 19 7 10 1018.8 - 0.0
29/05:00pm 13.9 10.9 10.5 80 1.8 W 17 24 9 13 1018.6 - 0.0
29/04:30pm 14.2 10.8 10.4 78 2.0 W 19 30 10 16 1018.3 - 0.0
29/04:00pm 14.4 11.1 11.0 80 1.8 W 19 30 10 16 1018.2 - 0.0
29/03:30pm 14.5 10.9 10.7 78 2.0 WNW 20 33 11 18 1018.1 - 0.0
29/03:00pm 14.6 10.5 10.2 75 2.3 W 22 39 12 21 1018.1 1018.6 0.0
29/02:30pm 14.8 10.6 11.0 78 2.1 WNW 24 39 13 21 1017.7 - 0.0
29/02:00pm 14.0 10.1 10.8 81 1.7 W 22 43 12 23 1017.7 - 0.0
29/01:30pm 13.7 9.3 10.5 81 1.7 W 24 39 13 21 1018.0 - 0.0
29/01:07pm 14.0 8.8 10.4 79 1.9 W 28 46 15 25 1017.7 - 0.0
29/01:00pm 14.1 9.0 10.7 80 1.8 WNW 28 43 15 23 1017.7 - 0.0
29/12:31pm 13.6 8.6 10.8 83 1.5 W 28 46 15 25 1018.2 - 0.0
29/12:30pm 13.5 8.0 10.5 82 1.6 W 30 46 16 25 1018.2 - 0.0
29/12:00pm 13.1 7.6 10.6 85 1.3 W 30 48 16 26 1018.5 1019.0 0.0
29/11:55am 12.7 7.1 10.2 85 1.3 W 30 48 16 26 1018.6 - 0.0
29/11:30am 12.4 7.2 10.3 87 1.1 WNW 28 43 15 23 1018.9 - 0.0
29/11:00am 11.3 6.7 9.7 90 0.8 WNW 24 35 13 19 1019.2 - 0.0
29/10:30am 11.2 7.3 9.3 88 1.0 WNW 20 28 11 15 1019.3 - 0.0
29/10:00am 11.0 6.6 9.1 88 1.0 WNW 22 35 12 19 1019.0 - 0.0
29/09:30am 10.8 6.7 8.7 87 1.1 WNW 20 32 11 17 1018.8 - 0.0
29/09:00am 10.2 5.2 8.1 87 1.0 W 24 35 13 19 1018.9 1019.5 0.0
29/08:30am 9.5 4.0 7.6 88 0.9 WNW 26 35 14 19 1018.4 - 0.0
29/08:00am 9.4 4.2 7.2 86 1.1 WNW 24 39 13 21 1018.0 - 0.0
29/07:30am 8.9 2.8 6.7 86 1.0 WNW 28 39 15 21 1017.1 - 0.0
29/07:00am 8.8 3.5 6.6 86 1.0 WNW 24 35 13 19 1016.8 - 0.0
29/06:30am 9.1 3.4 6.5 84 1.2 WNW 26 39 14 21 1017.1 - 0.0
29/06:00am 9.5 3.3 6.0 79 1.6 WNW 28 39 15 21 1017.3 1017.9 0.0
29/05:30am 9.2 4.4 5.6 78 1.7 W 20 32 11 17 1017.6 - 0.0
29/05:00am 9.6 4.8 5.4 75 2.0 WNW 20 35 11 19 1017.6 - 0.0
29/04:30am 9.4 4.1 5.2 75 1.9 WNW 22 32 12 17 1017.5 - 0.0
29/04:00am 9.3 5.0 5.3 76 1.8 WNW 17 24 9 13 1017.2 - 0.0
29/03:30am 9.5 5.2 5.3 75 1.9 WNW 17 26 9 14 1017.5 - 0.0
29/03:00am 9.4 5.1 5.4 76 1.9 WNW 17 24 9 13 1017.3 1017.9 0.0
29/02:30am 10.0 5.3 5.2 72 2.2 WNW 19 24 10 13 1017.6 - 0.0
29/02:00am 10.0 5.3 5.2 72 2.2 WNW 19 28 10 15 1017.7 - 0.0
29/01:30am 10.4 5.6 5.4 71 2.3 WNW 20 28 11 15 1017.5 - 0.0
29/01:00am 10.3 5.5 5.7 73 2.2 WNW 20 28 11 15 1017.6 - 0.0
29/12:30am 10.7 6.0 6.1 73 2.2 W 20 28 11 15 1017.8 - 0.0
29/12:00am 10.9 6.2 5.9 71 2.4 W 20 32 11 17 1018.1 1018.6 0.0
 
Date/Time
CST
Temp
°C
App
Temp
°C
Dew
Point
Rel
Hum
%
Delta-T
°C
Wind Press
QNH
hPa
Press
MSL
hPa
Rain
since 9 am
mm
Dir
 
Spd
km/h
Gust
km/h
Spd
kts
Gust
kts
28/11:30pm 10.8 6.3 6.2 73 2.2 W 19 28 10 15 1018.2 - 0.0
28/11:00pm 10.9 6.4 5.9 71 2.4 W 19 30 10 16 1018.1 - 0.0
28/10:30pm 11.2 6.4 5.7 69 2.6 W 20 30 11 16 1018.2 - 0.0
28/10:00pm 11.1 6.4 5.2 67 2.8 W 19 32 10 17 1018.4 - 0.0
28/09:30pm 11.4 6.4 4.8 64 3.1 W 20 30 11 16 1018.3 - 0.0
28/09:00pm 11.6 6.7 5.3 65 3.0 W 20 30 11 16 1018.1 1018.6 0.0
28/08:30pm 11.8 7.3 5.9 67 2.8 W 19 28 10 15 1018.0 - 0.0
28/08:00pm 11.5 7.8 6.4 71 2.5 W 15 24 8 13 1017.8 - 0.0
28/07:30pm 11.6 8.0 6.7 72 2.4 W 15 22 8 12 1017.7 - 0.0
28/07:00pm 11.0 8.4 7.7 80 1.6 W 11 15 6 8 1017.4 - 0.0
28/06:30pm 11.0 8.6 8.6 85 1.2 W 11 17 6 9 1017.3 - 0.0
28/06:00pm 11.5 9.3 9.2 86 1.2 W 11 17 6 9 1017.5 1018.1 0.0
28/05:30pm 11.8 9.3 9.7 87 1.1 W 13 19 7 10 1017.1 - 0.0
28/05:00pm 12.2 9.3 9.8 85 1.2 WNW 15 20 8 11 1017.2 - 0.0
28/04:30pm 12.7 10.1 9.3 80 1.8 W 13 19 7 10 1017.3 - 0.0
28/04:00pm 13.2 9.7 8.7 74 2.3 W 17 24 9 13 1017.6 - 0.0
28/03:30pm 13.3 9.8 7.1 66 3.1 WNW 15 24 8 13 1017.4 - 0.0
28/03:00pm 13.3 9.6 8.0 70 2.7 W 17 24 9 13 1017.3 1017.9 0.0
28/02:30pm 13.3 9.0 8.0 70 2.7 W 20 32 11 17 1017.4 - 0.0
28/02:00pm 13.5 9.2 7.1 65 3.2 WNW 19 28 10 15 1017.2 - 0.0
28/01:30pm 13.5 9.7 7.7 68 2.9 WNW 17 30 9 16 1017.4 - 0.0
28/01:00pm 13.6 9.9 7.8 68 2.9 WNW 17 26 9 14 1017.8 - 0.0
28/12:30pm 13.0 9.3 6.4 64 3.2 WNW 15 26 8 14 1018.4 - 0.0
28/12:00pm 12.7 8.5 5.6 62 3.4 NW 17 28 9 15 1018.9 1019.5 0.0
28/11:30am 12.4 7.6 4.6 59 3.6 NW 19 26 10 14 1019.0 - 0.0
28/11:00am 12.2 7.7 4.4 59 3.6 NW 17 26 9 14 1019.4 - 0.0
28/10:30am 12.0 6.5 4.2 59 3.6 NW 22 33 12 18 1019.6 - 0.0
28/10:00am 11.6 6.4 3.6 58 3.6 NW 20 30 11 16 1019.6 - 0.0
28/09:30am 11.1 5.9 2.7 56 3.7 NW 19 28 10 15 1019.8 - 0.0
28/09:00am 10.9 6.6 3.0 58 3.5 NW 15 24 8 13 1019.8 1020.4 0.0
28/08:30am 10.8 5.6 2.6 57 3.6 NW 19 30 10 16 1019.4 - 0.0
28/08:00am 10.4 5.7 3.0 60 3.3 NW 17 28 9 15 1019.4 - 0.0
28/07:30am 10.4 5.7 3.0 60 3.3 NW 17 26 9 14 1019.1 - 0.0
28/07:00am 10.2 5.9 3.0 61 3.2 NW 15 26 8 14 1019.0 - 0.0
28/06:30am 9.9 6.0 3.2 63 3.0 NW 13 20 7 11 1018.7 - 0.0
28/06:00am 10.4 6.8 3.2 61 3.2 NW 11 20 6 11 1018.7 1019.2 0.0
28/05:30am 11.1 6.4 2.9 57 3.6 NW 17 26 9 14 1018.8 - 0.0
28/05:00am 11.1 6.8 3.4 59 3.5 NW 15 22 8 12 1018.6 - 0.0
28/04:30am 11.0 6.7 3.5 60 3.4 NNW 15 24 8 13 1018.6 - 0.0
28/04:00am 10.2 6.8 3.9 65 2.8 NNW 11 17 6 9 1018.6 - 0.0
28/03:30am 10.3 6.5 3.8 64 2.9 NNW 13 20 7 11 1018.9 - 0.0
28/03:00am 9.8 6.4 3.8 66 2.7 NNW 11 17 6 9 1019.1 1019.7 0.0
28/02:30am 9.6 6.9 3.8 67 2.6 NNW 7 13 4 7 1018.8 - 0.0
28/02:00am 9.3 6.7 4.3 71 2.3 NNW 7 13 4 7 1019.2 - 0.0
28/01:30am 8.5 6.1 4.3 75 1.9 WNW 6 7 3 4 1019.2 - 0.0
28/01:00am 8.6 7.3 4.2 74 2.0 CALM 0 0 0 0 1019.5 - 0.0
28/12:30am 8.5 7.3 4.5 76 1.8 CALM 0 6 0 3 1019.8 - 0.0
28/12:00am 8.2 7.0 4.8 79 1.5 CALM 0 6 0 3 1020.0 1020.6 0.0
 
Date/Time
CST
Temp
°C
App
Temp
°C
Dew
Point
Rel
Hum
%
Delta-T
°C
Wind Press
QNH
hPa
Press
MSL
hPa
Rain
since 9 am
mm
Dir
 
Spd
km/h
Gust
km/h
Spd
kts
Gust
kts
27/11:30pm 8.3 6.8 5.1 80 1.5 NNW 2 7 1 4 1020.2 - 0.0
27/11:00pm 8.4 6.2 5.3 81 1.4 NNW 6 9 3 5 1020.8 - 0.0
27/10:30pm 8.3 6.6 5.8 84 1.2 NNW 4 7 2 4 1020.7 - 0.0
27/10:00pm 8.6 7.7 6.2 85 1.1 CALM 0 0 0 0 1021.0 - 0.0
27/09:30pm 9.2 7.2 6.3 82 1.4 N 6 7 3 4 1021.1 - 0.0
27/09:00pm 9.5 8.3 6.4 81 1.5 NNW 2 7 1 4 1021.2 1021.8 0.0
27/08:30pm 10.0 7.9 6.7 80 1.6 NNW 7 9 4 5 1021.0 - 0.0
27/08:00pm 10.5 9.7 6.6 77 1.9 CALM 0 9 0 5 1021.0 - 0.0
27/07:30pm 11.1 10.3 6.6 74 2.2 CALM 0 0 0 0 1021.0 - 0.0
27/07:00pm 11.7 10.1 6.2 69 2.6 NNW 4 9 2 5 1021.0 - 0.0
27/06:30pm 12.8 10.5 5.9 63 3.3 N 7 11 4 6 1020.9 - 0.0
27/06:00pm 13.4 10.8 6.0 61 3.6 N 9 13 5 7 1020.8 1021.3 0.0
27/05:30pm 13.8 10.8 5.9 59 3.8 NNW 11 17 6 9 1020.6 - 0.0
27/05:00pm 14.4 10.3 6.0 57 4.1 NW 17 26 9 14 1020.7 - 0.0
27/04:30pm 15.2 11.1 6.0 54 4.5 NW 17 26 9 14 1020.3 - 0.0
27/04:00pm 15.8 11.4 6.5 54 4.6 NW 19 30 10 16 1020.6 - 0.0
27/03:30pm 15.9 11.3 6.6 54 4.6 NW 20 37 11 20 1020.6 - 0.0
27/03:00pm 15.9 10.4 6.1 52 4.8 NW 24 41 13 22 1020.8 1021.3 0.0
27/02:30pm 16.0 10.9 5.9 51 5.0 NW 22 35 12 19 1021.0 - 0.0
27/02:00pm 15.9 9.9 6.9 55 4.5 NNW 28 44 15 24 1021.3 - 0.0
27/01:30pm 15.6 10.1 7.4 58 4.2 NW 26 39 14 21 1021.7 - 0.0
27/01:18pm 15.4 9.4 6.9 57 4.3 NNW 28 52 15 28 1021.8 - 0.0
27/01:00pm 15.3 9.7 7.3 59 4.0 NNW 26 41 14 22 1021.9 - 0.0
27/12:30pm 15.1 9.9 7.4 60 3.9 NW 24 41 13 22 1022.7 - 0.0
27/12:00pm 14.7 9.7 8.0 64 3.4 NNW 24 35 13 19 1023.3 1023.9 0.0
27/11:30am 14.4 9.0 7.9 65 3.3 NNW 26 41 14 22 1023.8 - 0.0
27/11:00am 13.0 7.4 7.0 67 3.0 NNW 26 41 14 22 1024.3 - 0.0
27/10:30am 12.3 9.0 8.0 75 2.2 N 15 24 8 13 1025.2 - 0.0
27/10:00am 9.7 7.9 7.3 85 1.2 NW 6 11 3 6 1025.4 - 0.0
27/09:30am 8.0 5.9 5.8 86 1.0 NW 6 7 3 4 1025.4 - 0.0
27/09:00am 6.4 5.3 5.2 92 0.5 CALM 0 7 0 4 1025.3 1026.0 0.2
27/08:30am 5.0 3.8 4.4 96 0.3 CALM 0 0 0 0 1024.7 - 0.2
27/08:00am 4.2 2.5 4.1 99 0.0 NW 2 6 1 3 1024.4 - 0.2
27/07:30am 3.6 2.2 3.5 99 0.0 CALM 0 0 0 0 1024.5 - 0.2
27/07:00am 3.9 1.4 3.9 100 0.0 NNW 6 13 3 7 1024.6 - 0.2
27/06:30am 2.4 0.8 2.4 100 0.0 CALM 0 0 0 0 1024.7 - 0.2
27/06:00am 2.4 0.8 2.3 99 0.0 CALM 0 0 0 0 1024.7 1025.3 0.2
27/05:30am 3.0 1.5 2.9 99 0.0 CALM 0 0 0 0 1024.8 - 0.2
27/05:00am 2.9 1.4 2.8 99 0.0 CALM 0 0 0 0 1024.8 - 0.2
27/04:30am 3.8 2.4 3.7 99 0.0 CALM 0 0 0 0 1024.9 - 0.2
27/04:00am 4.4 3.2 4.4 100 0.0 CALM 0 0 0 0 1025.0 - 0.2
27/03:30am 4.1 2.8 4.1 100 0.0 CALM 0 0 0 0 1025.1 - 0.2
27/03:00am 3.8 - 3.9 - - NW 2 9 1 5 1025.2 1025.9 0.2
27/02:30am 3.6 - 3.7 - - CALM 0 0 0 0 1025.3 - 0.2
27/02:00am 3.4 - 3.5 - - CALM 0 0 0 0 1025.4 - 0.2
27/01:30am 2.8 1.3 2.8 100 0.0 CALM 0 0 0 0 1025.5 - 0.2
27/01:00am 2.8 1.3 2.8 100 0.0 CALM 0 0 0 0 1025.7 - 0.2
27/12:30am 3.0 1.5 3.0 100 0.0 CALM 0 0 0 0 1025.8 - 0.2
27/12:00am 2.9 1.4 2.9 100 0.0 CALM 0 0 0 0 1026.0 1026.6 0.2
 
Date/Time
CST
Temp
°C
App
Temp
°C
Dew
Point
Rel
Hum
%
Delta-T
°C
Wind Press
QNH
hPa
Press
MSL
hPa
Rain
since 9 am
mm
Dir
 
Spd
km/h
Gust
km/h
Spd
kts
Gust
kts
26/11:30pm 3.1 1.6 3.0 99 0.0 CALM 0 0 0 0 1026.2 - 0.2
26/11:00pm 3.2 1.7 3.1 99 0.0 CALM 0 0 0 0 1026.5 - 0.2
26/10:30pm 3.5 2.1 3.4 99 0.0 CALM 0 0 0 0 1026.7 - 0.2
26/10:00pm 3.8 2.4 3.7 99 0.0 CALM 0 0 0 0 1026.8 - 0.2
26/09:30pm 4.2 2.9 4.1 99 0.0 CALM 0 0 0 0 1026.9 - 0.2
26/09:00pm 4.3 3.0 4.0 98 0.1 CALM 0 0 0 0 1026.9 1027.5 0.2
26/08:30pm 5.0 3.8 4.7 98 0.1 CALM 0 0 0 0 1026.9 - 0.2

Other Formats:

Comma delimited format used in spreadsheet applications
http://www.bom.gov.au/fwo/IDS60801/IDS60801.95667.axf

JavaScript Object Notation format (JSON) in row-major order
http://www.bom.gov.au/fwo/IDS60801/IDS60801.95667.json